.
WxDataArchive / Data Records for 2009-09-06
2009-09-05 September 2009 2009-09-07

Data Records for Sunday, 06 September 2009

Time	Temp	Chill	HIndex	Humid	Dewpt	 Wind 	HiWind	WindDir	Rain 	Barom 
-----	----	-----	------	-----	-----	------	------	-------	-----	----- 
00:00	61.8	61.8	61.8	79	55.2	0	0	---	0.00	30.233 
00:05	61.6	61.6	61.6	80	55.4	0	0	---	0.00	30.233 
00:10	61.3	61.3	61.3	80	55.1	0	0	---	0.00	30.233 
00:15	61.2	61.2	61.2	81	55.3	0	0	---	0.00	30.232 
00:20	61.0	61.0	61.0	82	55.5	0	0	---	0.00	30.232 
00:25	60.9	60.9	60.9	82	55.4	0	0	---	0.00	30.232 
00:30	60.5	60.5	60.5	83	55.3	0	0	---	0.00	30.229 
00:35	60.5	60.5	60.5	83	55.3	0	0	---	0.00	30.229 
00:40	60.4	60.4	60.4	84	55.5	0	0	---	0.00	30.229 
00:45	60.1	60.1	60.1	84	55.2	0	0	---	0.00	30.231 
00:50	59.9	59.9	59.9	84	55.0	0	0	---	0.00	30.231 
00:55	59.9	59.9	59.9	85	55.4	0	0	---	0.00	30.231 
01:00	59.8	59.8	59.8	85	55.3	0	0	---	0.00	30.232 
01:05	59.8	59.8	59.8	84	55.0	0	0	---	0.00	30.232 
01:10	59.6	59.6	59.6	84	54.8	0	0	---	0.00	30.232 
01:15	59.5	59.5	59.5	84	54.7	0	0	---	0.00	30.232 
01:20	59.3	59.3	59.3	85	54.8	0	0	---	0.00	30.232 
01:25	59.2	59.2	59.2	85	54.7	0	0	---	0.00	30.232 
01:30	59.2	59.2	59.2	85	54.7	0	0	---	0.00	30.235 
01:35	59.0	59.0	59.0	85	54.5	0	0	---	0.00	30.235 
01:40	58.9	58.9	58.9	85	54.4	0	0	---	0.00	30.235 
01:45	58.9	58.9	58.9	85	54.4	0	0	---	0.00	30.234 
01:50	58.9	58.9	58.9	85	54.4	0	0	---	0.00	30.234 
01:55	58.9	58.9	58.9	85	54.4	0	0	---	0.00	30.234 
02:00	58.7	58.7	58.7	85	54.2	0	0	---	0.00	30.237 
02:05	58.7	58.7	58.7	86	54.5	0	0	---	0.00	30.237 
02:10	58.6	58.6	58.6	86	54.4	0	0	---	0.00	30.237 
02:15	58.4	58.4	58.4	86	54.2	0	0	---	0.00	30.235 
02:20	58.3	58.3	58.3	86	54.1	0	0	---	0.00	30.235 
02:25	58.1	58.1	58.1	87	54.2	0	0	---	0.00	30.235 
02:30	58.0	58.0	58.0	87	54.1	0	0	---	0.00	30.232 
02:35	57.8	57.8	57.8	88	54.3	0	0	---	0.00	30.232 
02:40	57.8	57.8	57.8	88	54.3	0	0	---	0.00	30.232 
02:45	57.6	57.6	57.6	88	54.1	0	0	---	0.00	30.231 
02:50	57.6	57.6	57.6	89	54.4	0	0	---	0.00	30.231 
02:55	57.6	57.6	57.6	89	54.4	0	0	---	0.00	30.231 
03:00	57.6	57.6	57.6	89	54.4	0	0	---	0.00	30.228 
03:05	57.6	57.6	57.6	89	54.4	0	0	---	0.00	30.228 
03:10	57.6	57.6	57.6	89	54.4	0	0	---	0.00	30.228 
03:15	57.6	57.6	57.6	89	54.4	0	0	---	0.00	30.225 
03:20	57.6	57.6	57.6	89	54.4	0	0	---	0.00	30.225 
03:25	57.6	57.6	57.6	89	54.4	0	0	---	0.00	30.225 
03:30	57.5	57.5	57.5	90	54.6	0	0	---	0.00	30.226 
03:35	57.5	57.5	57.5	90	54.6	0	0	---	0.00	30.226 
03:40	57.5	57.5	57.5	90	54.6	0	0	---	0.00	30.226 
03:45	57.3	57.3	57.3	90	54.4	0	0	---	0.00	30.225 
03:50	57.3	57.3	57.3	90	54.4	0	0	---	0.00	30.225 
03:55	57.2	57.2	57.2	90	54.3	0	0	---	0.00	30.225 
04:00	57.2	57.2	57.2	90	54.3	0	0	---	0.00	30.223 
04:05	57.2	57.2	57.2	90	54.3	0	0	---	0.00	30.223 
04:10	57.2	57.2	57.2	90	54.3	0	0	---	0.00	30.223 
04:15	57.2	57.2	57.2	90	54.3	0	0	---	0.00	30.227 
04:20	57.2	57.2	57.2	91	54.6	0	0	---	0.00	30.227 
04:25	57.2	57.2	57.2	91	54.6	0	0	---	0.00	30.227 
04:30	57.0	57.0	57.0	91	54.4	0	0	---	0.00	30.230 
04:35	57.0	57.0	57.0	91	54.4	0	0	---	0.00	30.230 
04:40	57.0	57.0	57.0	91	54.4	0	0	---	0.00	30.230 
04:45	56.9	56.9	56.9	91	54.3	0	0	---	0.00	30.228 
04:50	56.9	56.9	56.9	91	54.3	0	0	---	0.00	30.228 
04:55	56.9	56.9	56.9	91	54.3	0	0	---	0.00	30.228 
05:00	56.7	56.7	56.7	91	54.1	0	0	---	0.00	30.228 
05:05	56.6	56.6	56.6	91	54.0	0	0	---	0.00	30.228 
05:10	56.6	56.6	56.6	92	54.3	0	0	---	0.00	30.228 
05:15	56.6	56.6	56.6	92	54.3	0	0	---	0.00	30.226 
05:20	56.5	56.5	56.5	92	54.2	0	0	---	0.00	30.226 
05:25	56.5	56.5	56.5	92	54.2	0	0	---	0.00	30.226 
05:30	56.7	56.7	56.7	92	54.4	0	0	---	0.00	30.226 
05:35	56.7	56.7	56.7	92	54.4	0	0	---	0.00	30.226 
05:40	56.9	56.9	56.9	92	54.6	0	0	---	0.00	30.226 
05:45	56.9	56.9	56.9	91	54.3	0	0	---	0.00	30.227 
05:50	56.9	56.9	56.9	91	54.3	0	0	---	0.00	30.227 
05:55	56.9	56.9	56.9	91	54.3	0	0	---	0.00	30.227 
06:00	56.7	56.7	56.7	91	54.1	0	0	---	0.00	30.228 
06:05	56.9	56.9	56.9	91	54.3	0	0	---	0.00	30.228 
06:10	57.0	57.0	57.0	91	54.4	0	0	---	0.00	30.228 
06:15	57.0	57.0	57.0	91	54.4	0	1	112	0.00	30.233 
06:20	57.2	57.2	57.2	90	54.3	0	1	112	0.00	30.233 
06:25	57.2	57.2	57.2	90	54.3	0	0	---	0.00	30.233 
06:30	57.2	57.2	57.2	90	54.3	0	0	---	0.00	30.238 
06:35	57.2	57.2	57.2	90	54.3	0	0	---	0.00	30.238 
06:40	57.2	57.2	57.2	90	54.3	0	0	---	0.00	30.238 
06:45	57.2	57.2	57.2	90	54.3	0	0	---	0.00	30.242 
06:50	57.3	57.3	57.3	90	54.4	0	0	---	0.00	30.242 
06:55	57.5	57.5	57.5	90	54.6	0	0	---	0.00	30.242 
07:00	57.6	57.6	57.6	89	54.4	0	1	112	0.00	30.246 
07:05	57.8	57.8	57.8	89	54.6	0	1	112	0.00	30.246 
07:10	58.0	58.0	58.0	89	54.8	0	1	112	0.00	30.246 
07:15	58.0	58.0	58.0	88	54.5	0	0	---	0.00	30.252 
07:20	58.1	58.1	58.1	88	54.6	0	0	---	0.00	30.252 
07:25	58.1	58.1	58.1	88	54.6	1	3	112	0.00	30.252 
07:30	58.3	58.3	58.3	88	54.8	0	2	112	0.00	30.253 
07:35	58.3	58.3	58.3	87	54.4	0	2	112	0.00	30.253 
07:40	58.3	58.3	58.3	87	54.4	0	2	112	0.00	30.253 
07:45	58.4	58.4	58.4	87	54.5	0	2	112	0.00	30.259 
07:50	58.4	58.4	58.4	88	54.9	0	1	112	0.00	30.259 
07:55	58.4	58.4	58.4	88	54.9	0	1	112	0.00	30.259 
08:00	58.6	58.6	58.6	87	54.7	0	2	112	0.00	30.261 
08:05	58.6	58.6	58.6	87	54.7	0	1	112	0.00	30.261 
08:10	58.6	58.6	58.6	88	55.1	0	1	112	0.00	30.261 
08:15	58.7	58.7	58.7	88	55.2	0	1	112	0.00	30.265 
08:20	58.7	58.7	58.7	88	55.2	0	2	112	0.00	30.265 
08:25	58.7	58.7	58.7	88	55.2	0	2	112	0.00	30.265 
08:30	58.9	58.9	58.9	88	55.3	0	1	112	0.00	30.265 
08:35	58.9	58.9	58.9	88	55.3	0	2	112	0.00	30.265 
08:40	59.0	59.0	59.0	87	55.1	0	2	112	0.00	30.265 
08:45	59.3	59.3	59.3	87	55.4	0	1	112	0.00	30.267 
08:50	59.5	59.5	59.5	87	55.6	0	1	112	0.00	30.267 
08:55	59.8	59.8	59.8	87	55.9	0	1	112	0.00	30.267 
09:00	60.1	60.1	60.1	86	55.9	0	2	112	0.00	30.264 
09:05	60.4	60.4	60.4	86	56.2	0	3	112	0.00	30.264 
09:10	60.7	60.7	60.7	85	56.2	0	2	112	0.00	30.264 
09:15	61.0	61.0	61.0	84	56.1	0	3	112	0.00	30.259 
09:20	61.2	61.2	61.2	84	56.3	1	3	112	0.00	30.259 
09:25	61.3	61.3	61.3	83	56.1	1	4	112	0.00	30.259 
09:30	61.3	61.3	61.3	83	56.1	1	4	112	0.00	30.258 
09:35	61.5	61.5	61.5	84	56.6	1	5	90	0.00	30.258 
09:40	61.5	61.5	61.5	83	56.3	1	4	112	0.00	30.258 
09:45	61.6	61.6	61.6	83	56.4	1	4	90	0.00	30.265 
09:50	61.6	61.6	61.6	83	56.4	1	3	90	0.00	30.265 
09:55	61.8	61.8	61.8	84	56.9	0	2	90	0.00	30.265 
10:00	62.0	62.0	62.0	83	56.8	1	4	90	0.00	30.263 
10:05	62.1	62.1	62.1	82	56.5	1	4	90	0.00	30.263 
10:10	62.1	62.1	62.1	82	56.5	1	4	135	0.00	30.263 
10:15	62.4	62.4	62.4	83	57.2	1	2	135	0.00	30.264 
10:20	62.7	62.7	62.7	82	57.1	1	3	135	0.00	30.264 
10:25	62.9	62.9	62.9	82	57.3	1	4	112	0.00	30.264 
10:30	63.2	63.2	63.2	81	57.3	1	4	112	0.00	30.261 
10:35	63.5	63.5	63.5	82	57.9	0	1	112	0.00	30.261 
10:40	63.9	63.9	63.9	81	57.9	1	3	112	0.00	30.261 
10:45	64.2	64.2	64.2	80	57.9	1	2	112	0.00	30.254 
10:50	64.3	64.3	64.3	80	58.0	1	3	112	0.00	30.254 
10:55	64.5	64.5	64.5	80	58.2	1	2	112	0.00	30.254 
11:00	64.8	64.8	64.8	81	58.8	0	2	112	0.00	30.252 
11:05	65.0	65.0	65.0	78	58.0	2	4	112	0.00	30.252 
11:10	65.3	65.3	65.3	78	58.3	1	4	90	0.00	30.252 
11:15	65.6	65.6	65.6	78	58.5	1	3	112	0.00	30.253 
11:20	66.1	66.1	66.1	78	59.0	1	4	112	0.00	30.253 
11:25	66.8	66.8	66.8	77	59.3	1	3	112	0.00	30.253 
11:30	67.3	67.3	67.3	77	59.8	1	3	112	0.00	30.257 
11:35	67.6	67.6	67.6	75	59.4	2	4	112	0.00	30.257 
11:40	68.4	68.4	68.4	75	60.2	1	3	112	0.00	30.257 
11:45	69.1	69.1	69.1	73	60.1	1	3	112	0.00	30.257 
11:50	69.6	69.6	69.6	72	60.2	1	4	112	0.00	30.257 
11:55	69.8	69.8	69.8	71	60.0	1	3	112	0.00	30.257 
12:00	70.1	70.1	70.1	71	60.2	1	3	112	0.00	30.257 
12:05	70.8	70.8	70.8	70	60.5	1	4	90	0.00	30.257 
12:10	71.6	71.6	71.6	69	60.9	2	4	90	0.00	30.257 
12:15	72.0	72.0	72.0	66	60.0	2	4	112	0.00	30.253 
12:20	72.3	72.3	72.3	67	60.7	1	4	90	0.00	30.253 
12:25	72.3	72.3	72.3	66	60.3	1	3	90	0.00	30.253 
12:30	72.7	72.7	72.7	63	59.4	1	4	90	0.00	30.257 
12:35	72.8	72.8	72.8	62	59.0	2	4	90	0.00	30.257 
12:40	72.8	72.8	72.8	62	59.0	1	3	112	0.00	30.257 
12:45	73.0	73.0	73.0	64	60.1	2	5	90	0.00	30.246 
12:50	73.3	73.3	73.3	61	59.0	2	7	112	0.00	30.246 
12:55	73.9	73.9	73.9	61	59.6	2	5	112	0.00	30.246 
13:00	74.4	74.4	74.4	62	60.5	2	4	90	0.00	30.243 
13:05	75.3	75.3	77.6	58	59.5	1	5	90	0.00	30.243 
13:10	75.1	75.1	77.5	57	58.8	2	6	90	0.00	30.243 
13:15	75.1	75.1	77.5	59	59.8	1	3	112	0.00	30.243 
13:20	75.1	75.1	77.4	60	60.2	2	5	90	0.00	30.243 
13:25	75.1	75.1	77.5	57	58.8	2	6	112	0.00	30.243 
13:30	75.3	75.3	77.6	58	59.5	2	4	90	0.00	30.239 
13:35	75.1	75.1	77.5	59	59.8	1	3	90	0.00	30.239 
13:40	74.7	74.7	74.7	58	58.9	3	6	90	0.00	30.239 
13:45	74.4	74.4	74.4	59	59.1	1	4	90	0.00	30.232 
13:50	74.6	74.6	74.6	57	58.3	1	3	90	0.00	30.232 
13:55	75.1	75.1	77.5	57	58.8	2	6	68	0.00	30.232 
14:00	75.3	75.3	77.6	58	59.5	1	4	90	0.00	30.227 
14:05	75.1	75.1	77.5	57	58.8	2	6	112	0.00	30.227 
14:10	74.9	74.9	74.9	56	58.1	2	5	90	0.00	30.227 
14:15	75.1	75.1	77.3	62	61.2	1	3	90	0.00	30.228 
14:20	75.8	75.8	77.9	57	59.5	1	4	112	0.00	30.228 
14:25	76.0	76.0	78.1	57	59.6	2	6	90	0.00	30.228 
14:30	76.0	76.0	78.1	56	59.2	1	5	112	0.00	30.224 
14:35	76.0	76.0	78.1	56	59.2	1	4	90	0.00	30.224 
14:40	76.0	76.0	78.1	54	58.1	2	4	112	0.00	30.224 
14:45	76.1	76.1	78.1	54	58.2	1	5	90	0.00	30.215 
14:50	76.0	76.0	78.1	53	57.6	2	6	112	0.00	30.215 
14:55	75.8	75.8	78.0	54	57.9	1	6	90	0.00	30.215 
15:00	75.4	75.4	77.8	53	57.1	2	6	112	0.00	30.211 
15:05	75.3	75.3	77.7	55	58.0	1	4	90	0.00	30.211 
15:10	75.4	75.4	77.7	55	58.1	1	3	90	0.00	30.211 
15:15	75.4	75.4	77.8	52	56.5	1	4	90	0.00	30.208 
15:20	75.4	75.4	77.8	54	57.6	1	3	90	0.00	30.208 
15:25	75.4	75.4	77.8	50	55.4	2	5	90	0.00	30.208 
15:30	75.6	75.6	77.8	56	58.8	1	5	112	0.00	30.201 
15:35	76.0	76.0	78.1	53	57.6	1	6	112	0.00	30.201 
15:40	76.1	76.1	78.1	52	57.2	2	5	90	0.00	30.201 
15:45	75.8	75.8	78.0	51	56.4	2	3	90	0.00	30.196 
15:50	75.8	75.8	78.0	55	58.5	1	4	90	0.00	30.196 
15:55	75.8	75.8	78.0	52	56.9	2	4	90	0.00	30.196 
16:00	76.0	76.0	78.1	52	57.1	1	3	90	0.00	30.187 
16:05	76.0	76.0	78.1	53	57.6	1	4	90	0.00	30.187 
16:10	75.8	75.8	78.0	52	56.9	0	2	112	0.00	30.187 
16:15	75.6	75.6	77.9	52	56.7	1	5	90	0.00	30.183 
16:20	75.4	75.4	77.7	55	58.1	1	3	112	0.00	30.183 
16:25	75.4	75.4	77.8	54	57.6	0	2	112	0.00	30.183 
16:30	75.4	75.4	77.7	56	58.6	0	2	112	0.00	30.180 
16:35	75.3	75.3	77.7	53	57.0	1	4	112	0.00	30.180 
16:40	75.3	75.3	77.7	55	58.0	1	2	112	0.00	30.180 
16:45	75.3	75.3	77.6	57	59.0	0	2	112	0.00	30.175 
16:50	75.3	75.3	77.7	55	58.0	0	2	112	0.00	30.175 
16:55	75.3	75.3	77.7	56	58.5	1	3	135	0.00	30.175 
17:00	75.3	75.3	77.7	54	57.5	0	3	135	0.00	30.167 
17:05	75.1	75.1	77.6	54	57.3	1	4	90	0.00	30.167 
17:10	75.1	75.1	77.6	55	57.8	1	2	112	0.00	30.167 
17:15	75.1	75.1	77.6	56	58.3	0	2	112	0.00	30.166 
17:20	75.1	75.1	77.5	57	58.8	0	0	---	0.00	30.166 
17:25	75.1	75.1	77.6	56	58.3	0	2	112	0.00	30.166 
17:30	74.9	74.9	74.9	54	57.1	0	2	112	0.00	30.164 
17:35	74.9	74.9	74.9	55	57.6	0	1	112	0.00	30.164 
17:40	74.9	74.9	74.9	56	58.1	0	0	---	0.00	30.164 
17:45	74.7	74.7	74.7	56	57.9	0	0	---	0.00	30.166 
17:50	74.6	74.6	74.6	56	57.8	0	1	112	0.00	30.166 
17:55	74.6	74.6	74.6	56	57.8	0	2	112	0.00	30.166 
18:00	74.4	74.4	74.4	56	57.7	0	2	112	0.00	30.168 
18:05	74.4	74.4	74.4	57	58.2	0	1	112	0.00	30.168 
18:10	74.2	74.2	74.2	57	58.0	0	1	112	0.00	30.168 
18:15	74.0	74.0	74.0	57	57.8	0	1	112	0.00	30.169 
18:20	74.0	74.0	74.0	58	58.3	0	1	112	0.00	30.169 
18:25	73.9	73.9	73.9	58	58.2	0	0	---	0.00	30.169 
18:30	73.7	73.7	73.7	58	58.0	0	1	112	0.00	30.172 
18:35	73.5	73.5	73.5	58	57.8	0	0	---	0.00	30.172 
18:40	73.3	73.3	73.3	59	58.1	0	0	---	0.00	30.172 
18:45	73.2	73.2	73.2	60	58.5	0	0	---	0.00	30.176 
18:50	73.0	73.0	73.0	62	59.2	0	0	---	0.00	30.176 
18:55	72.5	72.5	72.5	63	59.2	0	0	---	0.00	30.176 
19:00	72.1	72.1	72.1	64	59.2	0	0	---	0.00	30.179 
19:05	71.6	71.6	71.6	65	59.2	0	0	---	0.00	30.179 
19:10	71.1	71.1	71.1	66	59.2	0	0	---	0.00	30.179 
19:15	70.8	70.8	70.8	67	59.3	0	0	---	0.00	30.175 
19:20	70.4	70.4	70.4	69	59.7	0	0	---	0.00	30.175 
19:25	70.1	70.1	70.1	72	60.6	0	0	---	0.00	30.175 
19:30	69.8	69.8	69.8	72	60.4	0	0	---	0.00	30.170 
19:35	69.6	69.6	69.6	73	60.6	0	0	---	0.00	30.170 
19:40	69.3	69.3	69.3	73	60.3	0	0	---	0.00	30.170 
19:45	69.1	69.1	69.1	73	60.1	0	0	---	0.00	30.167 
19:50	68.9	68.9	68.9	73	59.9	0	0	---	0.00	30.167 
19:55	68.8	68.8	68.8	75	60.5	0	0	---	0.00	30.167 
20:00	68.6	68.6	68.6	75	60.3	0	0	---	0.00	30.158 
20:05	68.4	68.4	68.4	74	59.8	0	0	---	0.00	30.158 
20:10	68.3	68.3	68.3	73	59.3	0	0	---	0.00	30.158 
20:15	68.1	68.1	68.1	73	59.1	0	0	---	0.00	30.157 
20:20	68.1	68.1	68.1	74	59.5	0	0	---	0.00	30.157 
20:25	68.1	68.1	68.1	74	59.5	0	0	---	0.00	30.157 
20:30	67.9	67.9	67.9	75	59.7	0	0	---	0.00	30.153 
20:35	67.9	67.9	67.9	75	59.7	0	0	---	0.00	30.153 
20:40	67.9	67.9	67.9	75	59.7	0	0	---	0.00	30.153 
20:45	67.8	67.8	67.8	76	59.9	0	0	---	0.00	30.153 
20:50	67.8	67.8	67.8	76	59.9	0	0	---	0.00	30.153 
20:55	67.6	67.6	67.6	75	59.4	0	0	---	0.00	30.153 
21:00	67.6	67.6	67.6	76	59.8	0	0	---	0.00	30.156 
21:05	67.4	67.4	67.4	75	59.2	0	0	---	0.00	30.156 
21:10	67.4	67.4	67.4	75	59.2	0	0	---	0.00	30.156 
21:15	67.4	67.4	67.4	74	58.8	0	0	---	0.00	30.159 
21:20	67.4	67.4	67.4	73	58.4	0	0	---	0.00	30.159 
21:25	67.4	67.4	67.4	73	58.4	0	0	---	0.00	30.159 
21:30	67.4	67.4	67.4	73	58.4	0	0	---	0.00	30.168 
21:35	67.3	67.3	67.3	73	58.3	0	0	---	0.00	30.168 
21:40	67.3	67.3	67.3	73	58.3	0	0	---	0.00	30.168 
21:45	67.1	67.1	67.1	73	58.1	0	0	---	0.00	30.167 
21:50	67.1	67.1	67.1	75	58.9	0	0	---	0.00	30.167 
21:55	66.9	66.9	66.9	76	59.1	0	0	---	0.00	30.167 
22:00	66.9	66.9	66.9	76	59.1	0	0	---	0.00	30.166 
22:05	66.9	66.9	66.9	76	59.1	0	0	---	0.00	30.166 
22:10	66.9	66.9	66.9	77	59.4	0	0	---	0.00	30.166 
22:15	66.9	66.9	66.9	77	59.4	0	0	---	0.00	30.166 
22:20	66.9	66.9	66.9	77	59.4	0	0	---	0.00	30.166 
22:25	66.8	66.8	66.8	77	59.3	0	0	---	0.00	30.166 
22:30	66.8	66.8	66.8	77	59.3	0	0	---	0.00	30.169 
22:35	66.8	66.8	66.8	77	59.3	0	0	---	0.00	30.169 
22:40	66.8	66.8	66.8	77	59.3	0	0	---	0.00	30.169 
22:45	66.6	66.6	66.6	78	59.5	0	0	---	0.00	30.169 
22:50	66.6	66.6	66.6	78	59.5	0	0	---	0.00	30.169 
22:55	66.6	66.6	66.6	80	60.2	0	0	---	0.00	30.169 
23:00	66.4	66.4	66.4	81	60.4	0	0	---	0.01	30.170 
23:05	66.3	66.3	66.3	82	60.6	0	0	---	0.00	30.170 
23:10	66.3	66.3	66.3	82	60.6	0	0	---	0.00	30.170 
23:15	66.1	66.1	66.1	83	60.8	0	0	---	0.00	30.163 
23:20	66.0	66.0	66.0	84	61.0	0	0	---	0.00	30.163 
23:25	66.0	66.0	66.0	84	61.0	0	0	---	0.00	30.163 
23:30	65.8	65.8	65.8	84	60.8	0	0	---	0.00	30.162 
23:35	65.8	65.8	65.8	84	60.8	0	0	---	0.00	30.162 
23:40	65.8	65.8	65.8	84	60.8	0	0	---	0.00	30.162 
23:45	65.8	65.8	65.8	85	61.2	0	0	---	0.00	30.162 
23:50	65.8	65.8	65.8	85	61.2	0	0	---	0.00	30.162 
23:55	65.8	65.8	65.8	85	61.2	0	0	---	0.00	30.162 

CoCoRaHS
IN-AL-39
A2 Web Hosting
Creative Commons License
GoDaddy
search engine by freefind advanced

loaded 2018-11-13 17:15:21 • last modified 2010-11-18 10:43:29
Privacy PolicyDisclaimer
• wx.awcolley.com is powered by PmWiki v.2002016 •
• all content (unless otherwise noted) © 2018 A W Colley